Folla — LLPD — position and weather

sailwx.info

Track history (hours):
 
Tides and Currents Weather Stations Pressure Air Temp Water Temp Dewpoint Dewpoint Depression Visibility Wind Speed Wind Dir Waves Ship Positions

Folla

Last reported at 2015-Aug-31 22:32 UTC. Time now 2015-Aug-31 23:55 UTC.
Position N 66°43' E 013°12'.

Length 52 m; draft 5 m.

Type: Cargo ship. MMSI: 258253000.

Date/timePositionNaut miles runAvg speedWind from/ knotsBaromVisibWave heightAir tempDewpointWater temp
2015-Aug-31 22:32N 66°43' E 013°12'12 5.7
2015-Aug-31 20:29N 66°51' E 013°34'8 9.1
2015-Aug-31 19:34N 66°59' E 013°36'1110.9
2015-Aug-31 18:33N 67°07' E 013°57'3 2.7
2015-Aug-31 17:34N 67°09' E 014°00'0 0.0
2015-Aug-31 16:34N 67°09' E 014°00'3 2.6
2015-Aug-31 15:34N 67°11' E 014°05'10 9.9
2015-Aug-31 14:34N 67°18' E 014°24'1 0.7
2015-Aug-31 13:34N 67°18' E 014°23'1111.1
2015-Aug-31 12:33N 67°29' E 014°28'  
2015-Aug-28 08:20N 66°43' E 012°51'912.0
2015-Aug-28 07:33N 66°33' E 012°45'10 9.9
2015-Aug-28 06:33N 66°24' E 012°50'7 6.8
2015-Aug-28 05:33N 66°18' E 012°39'6 6.2
2015-Aug-28 04:31N 66°12' E 012°42'59 8.4
2015-Aug-27 21:32N 65°16' E 011°57'1111.3
2015-Aug-27 20:33N 65°06' E 011°47'4 3.7
2015-Aug-27 19:33N 65°03' E 011°43'1111.0
2015-Aug-27 18:33N 64°55' E 011°24'1110.7
2015-Aug-27 17:33N 64°48' E 011°06'1110.4
2015-Aug-27 16:32N 64°38' E 011°13'2 0.1
2015-Aug-26 17:18N 64°36' E 011°16'810.1
2015-Aug-26 16:33N 64°43' E 011°07'10 9.6
2015-Aug-26 15:33N 64°52' E 011°15'0 0.0
2015-Aug-26 14:33N 64°52' E 011°15'1 1.0
2015-Aug-26 13:34N 64°51' E 011°17'0 0.0
2015-Aug-26 12:34N 64°51' E 011°17'0 0.0
2015-Aug-26 11:33N 64°51' E 011°17'0 0.0
2015-Aug-26 10:34N 64°51' E 011°17'0 0.0
2015-Aug-26 09:33N 64°51' E 011°17'0 0.0
2015-Aug-26 08:33N 64°51' E 011°17'0 0.0
2015-Aug-26 07:33N 64°51' E 011°17'0 0.0
2015-Aug-26 06:33N 64°51' E 011°17'0 0.0
2015-Aug-26 05:33N 64°51' E 011°17'0 0.0
2015-Aug-26 04:33N 64°51' E 011°17'0 0.0
2015-Aug-26 03:33N 64°51' E 011°17'0 0.0
2015-Aug-26 02:33N 64°51' E 011°17'0 0.0
2015-Aug-26 01:33N 64°51' E 011°17'0 0.0
2015-Aug-26 00:33N 64°51' E 011°17'0 0.0
2015-Aug-25 23:33N 64°51' E 011°17'0 0.0
2015-Aug-25 22:33N 64°51' E 011°17'0 0.0
2015-Aug-25 21:33N 64°51' E 011°17'0 0.0
2015-Aug-25 20:33N 64°51' E 011°17'0 0.0
2015-Aug-25 19:34N 64°51' E 011°17'0 0.0
2015-Aug-25 18:33N 64°51' E 011°17'0 0.0
2015-Aug-25 17:33N 64°51' E 011°17'0 0.0
2015-Aug-25 16:33N 64°51' E 011°17'0 0.0
2015-Aug-25 15:33N 64°51' E 011°17'0 0.0
2015-Aug-25 14:34N 64°51' E 011°17'0 0.0
2015-Aug-25 13:33N 64°51' E 011°17'0 0.0
2015-Aug-25 12:33N 64°51' E 011°17'0 0.0
2015-Aug-25 11:33N 64°51' E 011°17'0 0.0
2015-Aug-25 10:33N 64°51' E 011°17'0 0.0
2015-Aug-25 09:33N 64°51' E 011°17'0 0.0
2015-Aug-25 08:33N 64°51' E 011°17'0 0.0
2015-Aug-25 07:33N 64°51' E 011°17'0 0.0
2015-Aug-25 06:33N 64°51' E 011°17'0 0.0
2015-Aug-25 05:33N 64°51' E 011°17'0 0.0
2015-Aug-25 04:33N 64°51' E 011°17'0 0.0
2015-Aug-25 03:33N 64°51' E 011°17'0 0.0
2015-Aug-25 02:33N 64°51' E 011°17'0 0.0
2015-Aug-25 01:33N 64°51' E 011°17'0 0.0
2015-Aug-25 00:33N 64°51' E 011°17'0 0.0
2015-Aug-24 23:34N 64°51' E 011°17'0 0.0
2015-Aug-24 22:33N 64°51' E 011°17'0 0.0
2015-Aug-24 21:33N 64°51' E 011°17'0 0.0
2015-Aug-24 20:33N 64°51' E 011°17'0 0.0
2015-Aug-24 19:33N 64°51' E 011°17'0 0.0
2015-Aug-24 18:34N 64°51' E 011°17'0 0.0
2015-Aug-24 17:33N 64°51' E 011°17'0 0.0
2015-Aug-24 16:33N 64°51' E 011°17'0 0.0
2015-Aug-24 15:33N 64°51' E 011°17'1 0.8
2015-Aug-24 14:33N 64°52' E 011°15'1110.5
2015-Aug-24 13:33N 64°59' E 011°33'1110.8
2015-Aug-24 12:31N 65°08' E 011°49'5611.2
2015-Aug-24 07:32N 66°01' E 012°32'2311.4
2015-Aug-24 05:33N 66°21' E 012°57'29 9.3
2015-Aug-24 02:28N 66°49' E 013°16'1010.5
2015-Aug-24 01:33N 66°57' E 013°29'1111.0
2015-Aug-24 00:33N 67°03' E 013°52'1111.0
2015-Aug-23 23:33N 67°12' E 014°09'8 7.9
2015-Aug-23 22:33N 67°17' E 014°24'8 7.8
2015-Aug-23 21:33N 67°25' E 014°27'165 9.7
2015-Aug-23 04:33N 69°38' E 018°56'3 2.8
2015-Aug-23 03:33N 69°41' E 018°59'0 0.0
2015-Aug-23 02:33N 69°41' E 018°59'7 6.7
2015-Aug-23 01:31N 69°35' E 018°49'  
Track history (hours):
 
Tides and Currents Weather Stations Pressure Air Temp Water Temp Dewpoint Dewpoint Depression Visibility Wind Speed Wind Dir Waves Ship Positions

Folla

Last reported at 2015-Aug-31 22:32 UTC. Time now 2015-Aug-31 23:55 UTC.
Position N 66°43' E 013°12'.

Length 52 m; draft 5 m.

Type: Cargo ship. MMSI: 258253000.

Date/timePositionNaut miles runAvg speedWind from/ knotsBaromVisibWave heightAir tempDewpointWater temp
2015-Aug-31 22:32N 66°43' E 013°12'12 5.7
2015-Aug-31 20:29N 66°51' E 013°34'8 9.1
2015-Aug-31 19:34N 66°59' E 013°36'1110.9
2015-Aug-31 18:33N 67°07' E 013°57'3 2.7
2015-Aug-31 17:34N 67°09' E 014°00'0 0.0
2015-Aug-31 16:34N 67°09' E 014°00'3 2.6
2015-Aug-31 15:34N 67°11' E 014°05'10 9.9
2015-Aug-31 14:34N 67°18' E 014°24'1 0.7
2015-Aug-31 13:34N 67°18' E 014°23'1111.1
2015-Aug-31 12:33N 67°29' E 014°28'  
2015-Aug-28 08:20N 66°43' E 012°51'912.0
2015-Aug-28 07:33N 66°33' E 012°45'10 9.9
2015-Aug-28 06:33N 66°24' E 012°50'7 6.8
2015-Aug-28 05:33N 66°18' E 012°39'6 6.2
2015-Aug-28 04:31N 66°12' E 012°42'59 8.4
2015-Aug-27 21:32N 65°16' E 011°57'1111.3
2015-Aug-27 20:33N 65°06' E 011°47'4 3.7
2015-Aug-27 19:33N 65°03' E 011°43'1111.0
2015-Aug-27 18:33N 64°55' E 011°24'1110.7
2015-Aug-27 17:33N 64°48' E 011°06'1110.4
2015-Aug-27 16:32N 64°38' E 011°13'2 0.1
2015-Aug-26 17:18N 64°36' E 011°16'810.1
2015-Aug-26 16:33N 64°43' E 011°07'10 9.6
2015-Aug-26 15:33N 64°52' E 011°15'0 0.0
2015-Aug-26 14:33N 64°52' E 011°15'1 1.0
2015-Aug-26 13:34N 64°51' E 011°17'0 0.0
2015-Aug-26 12:34N 64°51' E 011°17'0 0.0
2015-Aug-26 11:33N 64°51' E 011°17'0 0.0
2015-Aug-26 10:34N 64°51' E 011°17'0 0.0
2015-Aug-26 09:33N 64°51' E 011°17'0 0.0
2015-Aug-26 08:33N 64°51' E 011°17'0 0.0
2015-Aug-26 07:33N 64°51' E 011°17'0 0.0
2015-Aug-26 06:33N 64°51' E 011°17'0 0.0
2015-Aug-26 05:33N 64°51' E 011°17'0 0.0
2015-Aug-26 04:33N 64°51' E 011°17'0 0.0
2015-Aug-26 03:33N 64°51' E 011°17'0 0.0
2015-Aug-26 02:33N 64°51' E 011°17'0 0.0
2015-Aug-26 01:33N 64°51' E 011°17'0 0.0
2015-Aug-26 00:33N 64°51' E 011°17'0 0.0
2015-Aug-25 23:33N 64°51' E 011°17'0 0.0
2015-Aug-25 22:33N 64°51' E 011°17'0 0.0
2015-Aug-25 21:33N 64°51' E 011°17'0 0.0
2015-Aug-25 20:33N 64°51' E 011°17'0 0.0
2015-Aug-25 19:34N 64°51' E 011°17'0 0.0
2015-Aug-25 18:33N 64°51' E 011°17'0 0.0
2015-Aug-25 17:33N 64°51' E 011°17'0 0.0
2015-Aug-25 16:33N 64°51' E 011°17'0 0.0
2015-Aug-25 15:33N 64°51' E 011°17'0 0.0
2015-Aug-25 14:34N 64°51' E 011°17'0 0.0
2015-Aug-25 13:33N 64°51' E 011°17'0 0.0
2015-Aug-25 12:33N 64°51' E 011°17'0 0.0
2015-Aug-25 11:33N 64°51' E 011°17'0 0.0
2015-Aug-25 10:33N 64°51' E 011°17'0 0.0
2015-Aug-25 09:33N 64°51' E 011°17'0 0.0
2015-Aug-25 08:33N 64°51' E 011°17'0 0.0
2015-Aug-25 07:33N 64°51' E 011°17'0 0.0
2015-Aug-25 06:33N 64°51' E 011°17'0 0.0
2015-Aug-25 05:33N 64°51' E 011°17'0 0.0
2015-Aug-25 04:33N 64°51' E 011°17'0 0.0
2015-Aug-25 03:33N 64°51' E 011°17'0 0.0
2015-Aug-25 02:33N 64°51' E 011°17'0 0.0
2015-Aug-25 01:33N 64°51' E 011°17'0 0.0
2015-Aug-25 00:33N 64°51' E 011°17'0 0.0
2015-Aug-24 23:34N 64°51' E 011°17'0 0.0
2015-Aug-24 22:33N 64°51' E 011°17'0 0.0
2015-Aug-24 21:33N 64°51' E 011°17'0 0.0
2015-Aug-24 20:33N 64°51' E 011°17'0 0.0
2015-Aug-24 19:33N 64°51' E 011°17'0 0.0
2015-Aug-24 18:34N 64°51' E 011°17'0 0.0
2015-Aug-24 17:33N 64°51' E 011°17'0 0.0
2015-Aug-24 16:33N 64°51' E 011°17'0 0.0
2015-Aug-24 15:33N 64°51' E 011°17'1 0.8
2015-Aug-24 14:33N 64°52' E 011°15'1110.5
2015-Aug-24 13:33N 64°59' E 011°33'1110.8
2015-Aug-24 12:31N 65°08' E 011°49'5611.2
2015-Aug-24 07:32N 66°01' E 012°32'2311.4
2015-Aug-24 05:33N 66°21' E 012°57'29 9.3
2015-Aug-24 02:28N 66°49' E 013°16'1010.5
2015-Aug-24 01:33N 66°57' E 013°29'1111.0
2015-Aug-24 00:33N 67°03' E 013°52'1111.0
2015-Aug-23 23:33N 67°12' E 014°09'8 7.9
2015-Aug-23 22:33N 67°17' E 014°24'8 7.8
2015-Aug-23 21:33N 67°25' E 014°27'165 9.7
2015-Aug-23 04:33N 69°38' E 018°56'3 2.8
2015-Aug-23 03:33N 69°41' E 018°59'0 0.0
2015-Aug-23 02:33N 69°41' E 018°59'7 6.7
2015-Aug-23 01:31N 69°35' E 018°49'  

Dump ship's entire track history